Time;durP1;ratioP1;P1;durP2;ratioP2;P2;SDS_P1;SDS_P2;PMS_P1;PMS_P2;Temp;Humidity;BMP_temperature;BMP_pressure;BME280_temperature;BME280_humidity;BME280_pressure;Samples;Min_cycle;Max_cycle;Signal;HPM_P1;HPM_P2
2021/12/16 00:09:04;;;;;;;14.87;6.50;;;11.20;99.90;;;;;;5050501;28;20515;-76
2021/12/16 00:33:39;;;;;;;28.47;11.03;;;11.10;99.90;;;;;;5054033;28;20173;-77
2021/12/16 00:36:08;;;;;;;19.07;9.07;;;11.00;99.90;;;;;;5054124;28;20185;-77
2021/12/16 00:38:35;;;;;;;17.83;9.03;;;11.10;99.90;;;;;;5053472;28;20253;-77
2021/12/16 00:41:02;;;;;;;18.50;9.03;;;11.10;99.90;;;;;;5051099;28;20297;-78
2021/12/16 00:44:20;;;;;;;24.00;9.87;;;11.10;99.90;;;;;;5053764;28;20224;-77
2021/12/16 00:54:13;;;;;;;17.07;8.70;;;11.00;99.90;;;;;;5053702;28;20181;-75
2021/12/16 00:56:43;;;;;;;18.33;10.33;;;11.00;99.90;;;;;;5053436;28;20165;-73
2021/12/16 00:59:11;;;;;;;16.90;10.33;;;11.00;99.90;;;;;;5032167;28;20182;-71
2021/12/16 01:01:46;;;;;;;26.20;12.27;;;11.00;99.90;;;;;;5033337;28;20241;-76
2021/12/16 01:34:59;;;;;;;21.23;9.77;;;11.00;99.90;;;;;;5033283;28;20844;-78
2021/12/16 01:50:53;;;;;;;19.63;8.90;;;10.90;99.90;;;;;;5042453;28;20231;-74
2021/12/16 01:56:16;;;;;;;12.40;8.40;;;10.90;99.90;;;;;;5032636;28;20588;-74
2021/12/16 01:58:42;;;;;;;16.60;7.20;;;10.90;99.90;;;;;;5042975;28;20231;-75
2021/12/16 02:01:18;;;;;;;11.67;6.17;;;10.90;99.90;;;;;;5052174;28;20675;-74
2021/12/16 02:03:52;;;;;;;15.77;7.60;;;10.90;99.90;;;;;;5051902;28;20804;-75
2021/12/16 02:09:19;;;;;;;16.60;8.77;;;10.80;99.90;;;;;;5052025;28;20178;-73
2021/12/16 02:33:48;;;;;;;17.17;9.63;;;10.80;99.90;;;;;;5045447;28;20208;-73
2021/12/16 02:36:53;;;;;;;12.37;7.70;;;10.80;99.90;;;;;;5031371;28;20185;-73
2021/12/16 02:39:19;;;;;;;12.00;5.67;;;10.80;99.90;;;;;;5031025;28;20194;-72
2021/12/16 02:41:48;;;;;;;17.20;7.10;;;10.80;99.90;;;;;;5031047;28;20300;-72
2021/12/16 02:49:47;;;;;;;12.33;7.57;;;10.80;99.90;;;;;;5031414;28;20228;-73
2021/12/16 02:52:15;;;;;;;13.97;7.87;;;10.80;99.90;;;;;;5031662;28;20187;-72
2021/12/16 02:54:41;;;;;;;13.23;8.03;;;10.70;99.90;;;;;;5031191;28;20262;-71
2021/12/16 02:57:08;;;;;;;12.47;7.63;;;10.80;99.90;;;;;;5031222;28;20177;-72
2021/12/16 02:59:35;;;;;;;16.40;9.27;;;10.80;99.90;;;;;;5037790;28;20644;-72
2021/12/16 03:02:09;;;;;;;17.63;9.90;;;10.70;99.90;;;;;;5051082;28;20247;-70
2021/12/16 03:04:36;;;;;;;18.77;8.87;;;10.80;99.90;;;;;;5051266;28;20495;-70
2021/12/16 03:07:03;;;;;;;15.07;8.33;;;10.80;99.90;;;;;;5051044;28;20628;-72
2021/12/16 03:12:46;;;;;;;20.80;9.97;;;10.80;99.90;;;;;;5031457;28;20181;-72
2021/12/16 03:15:33;;;;;;;17.10;8.70;;;10.70;99.90;;;;;;5038668;28;20176;-70
2021/12/16 03:20:43;;;;;;;;;;;;;;;;;;;;;
2021/12/16 03:38:30;;;;;;;20.03;10.30;;;10.70;99.90;;;;;;5051272;28;20181;-71
2021/12/16 03:40:57;;;;;;;22.80;9.27;;;10.70;99.90;;;;;;5038149;28;20692;-70
2021/12/16 03:43:23;;;;;;;17.43;9.93;;;10.70;99.90;;;;;;5030926;28;20603;-71
2021/12/16 03:48:46;;;;;;;17.80;10.60;;;9.70;99.90;;;;;;5050832;28;20174;-72
2021/12/16 03:51:40;;;;;;;24.27;10.50;;;10.70;99.90;;;;;;5050674;28;20173;-72
2021/12/16 03:54:14;;;;;;;26.07;10.80;;;10.70;99.90;;;;;;5042387;28;20177;-72
2021/12/16 03:56:41;;;;;;;20.97;9.93;;;10.70;99.90;;;;;;5050693;28;20260;-72
2021/12/16 03:59:11;;;;;;;20.40;10.73;;;10.70;99.90;;;;;;5050827;28;20173;-71
2021/12/16 04:01:37;;;;;;;22.80;10.23;;;10.70;99.90;;;;;;5043112;28;20292;-72
2021/12/16 04:04:03;;;;;;;17.87;10.57;;;10.70;99.90;;;;;;5038928;28;20249;-71
2021/12/16 04:06:32;;;;;;;26.50;10.50;;;10.70;99.90;;;;;;5040346;28;20628;-71
2021/12/16 04:08:58;;;;;;;20.77;10.03;;;10.70;99.90;;;;;;5054713;28;20195;-78
2021/12/16 04:11:38;;;;;;;19.07;9.13;;;10.60;99.90;;;;;;5051232;28;20260;-70
2021/12/16 04:14:07;;;;;;;14.60;7.00;;;10.70;99.90;;;;;;5045736;28;20780;-71
2021/12/16 04:16:46;;;;;;;13.67;7.87;;;10.60;99.90;;;;;;5054038;28;20511;-71
2021/12/16 04:19:17;;;;;;;16.90;8.37;;;10.60;99.90;;;;;;5034135;28;20178;-70
2021/12/16 04:21:51;;;;;;;12.33;6.50;;;10.60;99.90;;;;;;5033728;28;20727;-71
2021/12/16 04:24:18;;;;;;;14.60;6.73;;;10.60;99.90;;;;;;5034454;28;20174;-70
2021/12/16 04:26:46;;;;;;;11.17;6.10;;;10.60;99.90;;;;;;5034044;28;20170;-71
2021/12/16 04:29:12;;;;;;;15.03;7.37;;;10.60;99.90;;;;;;5033796;28;20253;-71
2021/12/16 04:31:39;;;;;;;14.93;7.03;;;10.60;99.90;;;;;;5033853;28;20645;-71
2021/12/16 04:34:06;;;;;;;13.53;8.13;;;10.60;99.90;;;;;;5033961;28;20249;-71
2021/12/16 04:36:34;;;;;;;13.57;7.77;;;10.60;99.90;;;;;;5033909;28;20710;-75
2021/12/16 04:39:01;;;;;;;13.20;8.07;;;10.60;99.90;;;;;;5033815;28;20669;-76
2021/12/16 04:41:27;;;;;;;16.00;7.70;;;10.60;99.90;;;;;;5041017;28;20209;-76
2021/12/16 04:43:56;;;;;;;14.90;7.97;;;10.60;99.90;;;;;;5053579;28;20173;-76
2021/12/16 04:46:25;;;;;;;14.83;8.30;;;10.60;99.90;;;;;;5053933;28;20196;-74
2021/12/16 04:48:54;;;;;;;13.53;8.20;;;10.60;99.90;;;;;;5053669;28;20247;-75
2021/12/16 04:51:23;;;;;;;19.63;8.00;;;10.60;99.90;;;;;;5052240;28;20173;-76
2021/12/16 04:53:50;;;;;;;16.97;8.63;;;10.60;99.90;;;;;;5053415;28;20777;-75
2021/12/16 04:56:17;;;;;;;16.40;8.80;;;10.60;99.90;;;;;;5053811;28;20173;-75
2021/12/16 04:58:46;;;;;;;14.03;8.13;;;10.60;99.90;;;;;;5053564;28;20165;-76
2021/12/16 05:01:12;;;;;;;16.27;7.80;;;10.70;99.90;;;;;;5052080;28;20212;-75
2021/12/16 05:03:38;;;;;;;13.83;6.60;;;10.70;99.90;;;;;;5040435;28;20265;-75
2021/12/16 05:06:05;;;;;;;14.47;6.87;;;10.70;99.90;;;;;;5033255;28;20253;-74
2021/12/16 05:08:31;;;;;;;10.87;5.10;;;10.70;99.90;;;;;;5033225;28;20162;-75
2021/12/16 05:11:00;;;;;;;14.07;4.50;;;10.70;99.90;;;;;;5052150;28;20181;-73
2021/12/16 05:13:28;;;;;;;14.90;5.13;;;10.60;99.90;;;;;;5053185;28;20168;-71
2021/12/16 05:15:56;;;;;;;10.03;4.57;;;10.60;99.90;;;;;;5053045;28;20760;-71
2021/12/16 05:18:30;;;;;;;9.53;4.83;;;10.60;99.90;;;;;;5037980;28;20185;-71
2021/12/16 05:20:58;;;;;;;9.90;4.90;;;10.50;99.90;;;;;;5032909;28;20234;-71
2021/12/16 05:28:39;;;;;;;7.23;4.20;;;10.50;99.90;;;;;;5033087;28;20272;-71
2021/12/16 05:31:05;;;;;;;8.80;3.97;;;10.50;99.90;;;;;;5032866;28;20632;-71
2021/12/16 05:33:31;;;;;;;9.20;3.80;;;10.60;99.90;;;;;;5034017;28;20178;-72
2021/12/16 05:35:58;;;;;;;5.27;3.57;;;10.50;99.90;;;;;;5052741;28;20201;-72
2021/12/16 05:38:26;;;;;;;14.60;3.60;;;10.60;99.90;;;;;;5052792;28;20173;-72
2021/12/16 05:40:53;;;;;;;6.53;3.13;;;11.80;99.90;;;;;;5052799;28;20566;-72
2021/12/16 05:43:22;;;;;;;6.37;3.90;;;10.70;99.90;;;;;;5052581;28;20201;-71
2021/12/16 05:45:49;;;;;;;10.07;4.67;;;10.70;99.90;;;;;;5049998;28;20178;-71
2021/12/16 05:48:18;;;;;;;8.70;5.40;;;10.60;99.90;;;;;;5035103;28;20233;-72
2021/12/16 05:50:48;;;;;;;10.73;5.73;;;10.20;99.90;;;;;;5032526;28;20177;-74
2021/12/16 05:53:13;;;;;;;14.60;5.90;;;10.60;99.90;;;;;;5032371;28;20228;-74
2021/12/16 05:55:40;;;;;;;10.50;5.30;;;10.60;99.90;;;;;;5032373;28;20178;-73
2021/12/16 05:58:07;;;;;;;11.40;4.30;;;10.60;99.90;;;;;;5031114;28;20274;-70
2021/12/16 06:00:37;;;;;;;8.07;5.10;;;10.60;99.90;;;;;;5048296;28;20232;-77
2021/12/16 06:03:04;;;;;;;12.67;5.07;;;10.60;99.90;;;;;;5038020;28;20174;-72
2021/12/16 06:05:30;;;;;;;7.30;4.83;;;10.60;99.90;;;;;;5051441;28;20256;-74
2021/12/16 06:07:57;;;;;;;17.03;6.43;;;10.70;99.90;;;;;;5046259;28;20269;-74
2021/12/16 06:12:55;;;;;;;19.77;5.27;;;10.70;99.90;;;;;;5052060;28;20193;-75
2021/12/16 06:15:38;;;;;;;13.27;4.50;;;10.70;99.90;;;;;;5051987;28;20599;-74
2021/12/16 06:26:33;;;;;;;11.17;4.33;;;10.60;99.90;;;;;;5051778;28;20176;-72
2021/12/16 06:29:00;;;;;;;9.50;3.90;;;10.70;99.90;;;;;;5051463;28;20177;-72
2021/12/16 06:31:26;;;;;;;8.17;3.63;;;10.60;99.90;;;;;;5051637;28;20176;-73
2021/12/16 06:33:52;;;;;;;6.50;3.40;;;10.60;99.90;;;;;;5051441;28;20185;-72
2021/12/16 06:36:18;;;;;;;8.80;3.30;;;10.60;99.90;;;;;;5050726;28;20632;-73
2021/12/16 06:38:44;;;;;;;8.70;3.80;;;10.60;99.90;;;;;;5051014;28;20180;-73
2021/12/16 06:41:10;;;;;;;7.53;3.80;;;10.60;99.90;;;;;;5051362;28;20286;-73
2021/12/16 06:43:36;;;;;;;7.17;3.60;;;10.60;99.90;;;;;;5049916;28;20189;-73
2021/12/16 06:46:06;;;;;;;12.10;3.90;;;10.60;99.90;;;;;;5049723;28;20260;-72
2021/12/16 06:48:36;;;;;;;12.20;3.53;;;10.60;99.90;;;;;;5050634;28;20262;-73
2021/12/16 06:51:13;;;;;;;10.90;3.40;;;10.60;99.90;;;;;;5051592;28;20268;-73
2021/12/16 06:53:50;;;;;;;8.00;3.30;;;10.70;99.90;;;;;;5051050;28;20177;-73
2021/12/16 06:56:27;;;;;;;9.83;2.80;;;10.60;99.90;;;;;;5050749;28;20185;-73
2021/12/16 06:59:19;;;;;;;8.40;3.10;;;10.60;99.90;;;;;;5051113;28;20161;-73
2021/12/16 07:01:59;;;;;;;10.37;2.90;;;10.60;99.90;;;;;;5050835;28;20217;-73
2021/12/16 07:04:24;;;;;;;11.93;3.17;;;10.60;99.90;;;;;;5050833;28;20177;-73
2021/12/16 07:06:50;;;;;;;12.23;3.73;;;10.60;99.90;;;;;;5051010;28;20188;-73
2021/12/16 07:09:18;;;;;;;11.73;3.50;;;10.60;99.90;;;;;;5050738;28;20180;-77
2021/12/16 07:11:52;;;;;;;10.00;3.30;;;10.60;99.90;;;;;;5049405;28;20178;-74
2021/12/16 07:14:19;;;;;;;7.27;3.03;;;10.60;99.90;;;;;;5050780;28;20174;-74
2021/12/16 07:16:48;;;;;;;9.13;3.47;;;11.90;99.90;;;;;;5049194;28;20256;-74
2021/12/16 07:19:14;;;;;;;8.20;3.40;;;10.60;99.90;;;;;;5050875;28;20204;-76
2021/12/16 07:21:42;;;;;;;10.63;3.37;;;10.50;99.90;;;;;;5048790;28;20256;-75
2021/12/16 07:24:11;;;;;;;10.10;3.30;;;10.60;99.90;;;;;;5030861;28;20170;-75
2021/12/16 07:26:38;;;;;;;5.40;3.13;;;10.60;99.90;;;;;;5030800;28;20209;-75
2021/12/16 07:29:06;;;;;;;15.97;3.80;;;10.60;99.90;;;;;;5030786;28;20174;-74
2021/12/16 07:31:33;;;;;;;5.53;3.03;;;11.30;99.90;;;;;;5030663;28;20640;-75
2021/12/16 07:34:00;;;;;;;5.73;3.50;;;10.60;99.90;;;;;;5030172;28;20170;-75
2021/12/16 07:36:27;;;;;;;9.03;3.03;;;10.60;99.90;;;;;;5030862;28;20192;-75
2021/12/16 07:38:54;;;;;;;4.97;3.03;;;10.60;99.90;;;;;;5030951;28;20170;-77
2021/12/16 07:41:24;;;;;;;7.47;3.40;;;10.70;99.90;;;;;;5031012;28;20206;-79
2021/12/16 07:43:58;;;;;;;7.80;2.90;;;10.70;99.90;;;;;;5030679;28;20166;-74
2021/12/16 07:46:25;;;;;;;13.07;2.80;;;10.60;99.90;;;;;;5030434;28;20260;-73
2021/12/16 07:48:51;;;;;;;8.20;3.10;;;10.60;99.90;;;;;;5050361;28;20177;-73
2021/12/16 07:51:17;;;;;;;9.30;3.10;;;10.60;99.90;;;;;;5050579;28;20177;-67
2021/12/16 07:53:44;;;;;;;9.40;3.30;;;10.60;99.90;;;;;;5050369;28;20302;-68
2021/12/16 07:56:10;;;;;;;8.07;3.27;;;10.60;99.90;;;;;;5050321;28;20256;-70
2021/12/16 07:58:37;;;;;;;10.50;3.47;;;10.60;99.90;;;;;;5049662;28;20256;-66
2021/12/16 08:01:04;;;;;;;8.77;3.33;;;10.70;99.90;;;;;;5047822;28;20204;-67
2021/12/16 08:03:35;;;;;;;8.87;3.27;;;10.60;99.90;;;;;;5049684;28;20238;-66
2021/12/16 08:06:09;;;;;;;9.60;3.20;;;10.60;99.90;;;;;;5035625;28;20169;-66
2021/12/16 08:08:36;;;;;;;10.60;3.23;;;10.60;99.90;;;;;;5046263;28;20185;-66
2021/12/16 08:11:03;;;;;;;7.73;3.33;;;10.60;99.90;;;;;;5050247;28;20258;-67
2021/12/16 08:13:29;;;;;;;6.37;3.40;;;10.60;99.90;;;;;;5050089;28;20177;-68
2021/12/16 08:15:55;;;;;;;9.40;3.33;;;10.60;99.90;;;;;;5048634;28;20531;-65
2021/12/16 08:18:21;;;;;;;9.77;3.87;;;10.60;99.90;;;;;;5039923;28;20305;-67
2021/12/16 08:20:47;;;;;;;11.40;3.87;;;10.60;99.90;;;;;;5044475;28;20228;-67
2021/12/16 08:23:12;;;;;;;10.70;3.43;;;10.70;99.90;;;;;;5046773;28;20180;-67
2021/12/16 08:25:39;;;;;;;23.97;4.33;;;10.70;99.90;;;;;;5050042;28;20193;-67
2021/12/16 08:28:06;;;;;;;18.83;3.50;;;10.70;99.90;;;;;;5049945;28;20201;-63
2021/12/16 08:30:37;;;;;;;6.73;3.37;;;10.70;99.90;;;;;;5049985;28;20165;-64
2021/12/16 08:33:08;;;;;;;12.80;4.10;;;10.70;99.90;;;;;;5049909;28;20636;-63
2021/12/16 08:35:34;;;;;;;18.27;3.90;;;10.70;99.90;;;;;;5050058;28;20706;-64
2021/12/16 08:38:00;;;;;;;24.47;4.40;;;10.80;99.90;;;;;;5041138;28;20261;-63
2021/12/16 08:40:26;;;;;;;10.40;4.33;;;10.80;99.90;;;;;;5049548;28;20180;-64
2021/12/16 08:42:52;;;;;;;10.13;3.63;;;10.80;99.90;;;;;;5030620;28;20244;-64
2021/12/16 08:45:24;;;;;;;13.10;4.00;;;10.80;99.90;;;;;;5032162;28;20178;-63
2021/12/16 08:47:50;;;;;;;12.87;4.00;;;10.80;99.90;;;;;;5035137;28;20170;-62
2021/12/16 08:50:19;;;;;;;9.17;3.63;;;10.80;99.90;;;;;;5037480;28;20227;-64
2021/12/16 08:52:45;;;;;;;9.93;4.07;;;10.80;99.90;;;;;;5039104;28;20174;-62
2021/12/16 08:55:12;;;;;;;17.07;6.40;;;10.80;99.90;;;;;;5033541;28;20192;-67
2021/12/16 08:57:39;;;;;;;14.37;5.83;;;10.80;99.90;;;;;;5051835;28;20166;-68
2021/12/16 09:00:09;;;;;;;17.30;4.10;;;10.90;99.90;;;;;;5037107;28;20220;-67
2021/12/16 09:02:35;;;;;;;18.67;7.33;;;10.90;99.90;;;;;;5033574;28;20205;-68
2021/12/16 09:05:01;;;;;;;22.10;6.03;;;10.90;99.90;;;;;;5044466;28;20311;-67
2021/12/16 09:07:26;;;;;;;20.27;5.87;;;10.80;99.90;;;;;;5053184;28;20173;-71
2021/12/16 09:09:54;;;;;;;14.17;5.40;;;10.80;99.90;;;;;;5052146;28;20170;-70
2021/12/16 09:15:03;;;;;;;20.50;6.60;;;10.90;99.90;;;;;;5037086;28;20232;-68
2021/12/16 09:17:29;;;;;;;21.67;6.80;;;10.90;99.90;;;;;;5051454;28;20173;-70
2021/12/16 09:19:56;;;;;;;21.07;8.50;;;11.00;99.90;;;;;;5052814;28;20223;-75
2021/12/16 09:22:23;;;;;;;31.00;7.83;;;11.00;99.90;;;;;;5052851;28;20212;-74
2021/12/16 09:24:50;;;;;;;20.67;6.73;;;11.00;99.90;;;;;;5053069;28;20212;-76
2021/12/16 09:27:17;;;;;;;18.17;6.10;;;11.00;99.90;;;;;;5047095;28;20178;-73
2021/12/16 09:29:44;;;;;;;22.57;5.43;;;11.00;99.90;;;;;;5052418;28;20169;-67
2021/12/16 09:32:10;;;;;;;21.17;5.73;;;11.00;99.90;;;;;;5051710;28;20572;-64
2021/12/16 09:34:37;;;;;;;15.43;5.33;;;11.00;99.90;;;;;;5052628;28;20263;-68
2021/12/16 09:37:05;;;;;;;17.97;5.40;;;11.00;99.90;;;;;;5052364;28;20169;-70
2021/12/16 09:39:31;;;;;;;21.63;5.20;;;11.00;99.90;;;;;;5051749;28;20169;-69
2021/12/16 09:41:58;;;;;;;10.90;4.73;;;11.00;99.90;;;;;;5052332;28;20231;-70
2021/12/16 09:44:26;;;;;;;21.47;4.90;;;11.10;99.90;;;;;;5052558;28;20165;-70
2021/12/16 09:46:54;;;;;;;17.17;5.40;;;11.10;99.90;;;;;;5047438;28;20668;-66
2021/12/16 09:49:22;;;;;;;15.13;4.43;;;11.10;99.90;;;;;;5032445;28;20178;-65
2021/12/16 09:51:51;;;;;;;17.37;5.57;;;11.10;99.90;;;;;;5032118;28;20189;-66
2021/12/16 09:54:23;;;;;;;18.90;4.50;;;11.10;99.90;;;;;;5031849;28;20787;-66
2021/12/16 09:56:50;;;;;;;22.90;5.27;;;11.20;99.90;;;;;;5032162;28;20755;-66
2021/12/16 09:59:18;;;;;;;24.00;5.07;;;11.20;99.90;;;;;;5032138;28;20253;-66
2021/12/16 10:01:47;;;;;;;16.73;4.63;;;11.20;99.90;;;;;;5039006;28;20212;-66
2021/12/16 10:04:19;;;;;;;21.33;4.90;;;11.30;99.90;;;;;;5051487;28;20691;-65
2021/12/16 10:06:47;;;;;;;17.00;4.67;;;11.20;99.90;;;;;;5051657;28;20169;-66
2021/12/16 10:09:13;;;;;;;22.80;4.77;;;11.30;99.90;;;;;;5051499;28;20176;-66
2021/12/16 10:11:47;;;;;;;19.10;4.87;;;11.40;99.90;;;;;;5051741;28;20582;-66
2021/12/16 10:19:27;;;;;;;14.33;4.90;;;11.50;99.90;;;;;;5051608;28;20176;-66
2021/12/16 10:21:55;;;;;;;11.60;4.63;;;9.90;99.90;;;;;;5051586;28;20233;-66
2021/12/16 10:24:31;;;;;;;18.50;4.53;;;11.40;99.90;;;;;;5042552;28;20178;-67
2021/12/16 10:27:19;;;;;;;11.13;5.00;;;11.40;99.90;;;;;;5031699;28;20672;-67
2021/12/16 10:29:46;;;;;;;13.37;4.87;;;11.40;99.90;;;;;;5042384;28;20660;-66
2021/12/16 10:32:35;;;;;;;13.03;4.93;;;11.50;99.90;;;;;;5031613;28;20166;-66
2021/12/16 10:35:06;;;;;;;22.30;4.87;;;11.50;99.90;;;;;;5030437;28;20269;-74
2021/12/16 10:37:38;;;;;;;17.50;4.20;;;11.50;99.90;;;;;;5032666;28;20181;-68
2021/12/16 10:40:34;;;;;;;20.80;4.53;;;11.50;99.90;;;;;;5038827;28;20585;-68
2021/12/16 10:43:38;;;;;;;18.87;3.90;;;12.50;99.90;;;;;;5051038;28;20178;-65
2021/12/16 10:46:08;;;;;;;6.90;3.50;;;12.30;99.90;;;;;;5051211;28;20238;-68
2021/12/16 10:48:46;;;;;;;12.70;4.23;;;11.60;99.90;;;;;;5051607;28;20176;-68
2021/12/16 10:51:35;;;;;;;13.53;4.60;;;11.90;99.90;;;;;;5042300;28;20192;-67
2021/12/16 10:54:21;;;;;;;17.00;4.23;;;11.70;99.90;;;;;;5031179;28;20542;-68
2021/12/16 10:56:50;;;;;;;22.20;4.63;;;11.70;99.90;;;;;;5031356;28;20166;-68
2021/12/16 10:59:21;;;;;;;30.93;5.40;;;11.80;99.90;;;;;;5031230;28;20205;-68
2021/12/16 11:01:56;;;;;;;11.37;4.27;;;11.80;99.90;;;;;;5043577;28;20204;-67
2021/12/16 11:04:40;;;;;;;14.40;3.93;;;11.90;99.90;;;;;;5050950;28;20258;-69
2021/12/16 11:07:10;;;;;;;14.97;4.20;;;11.90;99.90;;;;;;5050532;28;20217;-66
2021/12/16 11:09:50;;;;;;;12.67;5.47;;;12.00;99.90;;;;;;5050980;28;20177;-67
2021/12/16 11:12:24;;;;;;;16.03;4.50;;;11.80;99.90;;;;;;5050884;28;20172;-66
2021/12/16 11:14:53;;;;;;;20.20;4.60;;;12.00;99.90;;;;;;5034447;28;20295;-67
2021/12/16 11:17:21;;;;;;;21.30;5.20;;;11.90;99.90;;;;;;5042467;28;20181;-67
2021/12/16 11:20:05;;;;;;;11.23;4.60;;;11.90;99.90;;;;;;5030086;28;20658;-69
2021/12/16 11:22:35;;;;;;;14.57;4.43;;;12.00;99.90;;;;;;5030423;28;20218;-73
2021/12/16 11:25:18;;;;;;;222.57;24.03;;;11.90;99.90;;;;;;5029756;28;20220;-69
2021/12/16 11:27:47;;;;;;;270.00;27.30;;;12.00;99.90;;;;;;5061999;28;20303;-69
2021/12/16 11:30:33;;;;;;;75.83;9.60;;;12.10;99.90;;;;;;5030026;28;20226;-68
2021/12/16 11:33:07;;;;;;;57.60;8.17;;;12.10;99.90;;;;;;5030623;28;20178;-68
2021/12/16 11:35:41;;;;;;;32.97;6.87;;;12.20;99.90;;;;;;5030450;28;20188;-67
2021/12/16 11:38:23;;;;;;;28.63;5.23;;;12.20;99.90;;;;;;5030282;28;20274;-67
2021/12/16 11:41:04;;;;;;;25.20;5.77;;;12.20;99.90;;;;;;5042712;28;20208;-67
2021/12/16 11:43:40;;;;;;;24.07;5.43;;;12.20;99.90;;;;;;5048850;28;20264;-67
2021/12/16 11:46:19;;;;;;;25.77;5.17;;;12.30;99.90;;;;;;5047424;28;20208;-68
2021/12/16 11:48:45;;;;;;;32.00;5.20;;;12.30;99.90;;;;;;5050595;28;20181;-68
2021/12/16 11:51:20;;;;;;;24.87;5.40;;;12.30;99.90;;;;;;5050711;28;20169;-68
2021/12/16 11:53:51;;;;;;;23.90;5.32;;;12.30;99.90;;;;;;5050546;28;20200;-67
2021/12/16 11:56:19;;;;;;;27.40;6.20;;;12.40;99.90;;;;;;5044163;28;20166;-67
2021/12/16 11:58:47;;;;;;;27.73;6.23;;;12.40;99.90;;;;;;5028844;28;20284;-67
2021/12/16 12:01:19;;;;;;;24.03;5.63;;;12.40;99.90;;;;;;5028373;28;20896;-67
2021/12/16 12:03:46;;;;;;;21.83;4.83;;;12.40;99.90;;;;;;5028372;28;20166;-68
2021/12/16 12:06:25;;;;;;;18.53;5.07;;;12.40;99.90;;;;;;5028507;28;20196;-68
2021/12/16 12:08:54;;;;;;;17.13;5.33;;;12.40;99.90;;;;;;5045154;28;20184;-68
2021/12/16 12:11:30;;;;;;;22.17;5.20;;;12.30;99.90;;;;;;5043003;28;20177;-67
2021/12/16 12:14:07;;;;;;;13.73;5.40;;;12.40;99.90;;;;;;5044866;28;20180;-66
2021/12/16 12:16:36;;;;;;;15.93;5.33;;;12.40;99.90;;;;;;5050094;28;20207;-66
2021/12/16 12:19:16;;;;;;;14.50;5.43;;;12.40;99.90;;;;;;5050488;28;20169;-67
2021/12/16 12:21:50;;;;;;;19.20;5.70;;;12.40;99.90;;;;;;5053432;28;20566;-68
2021/12/16 12:24:20;;;;;;;14.30;5.30;;;12.30;99.90;;;;;;5040990;28;20201;-68
2021/12/16 12:26:56;;;;;;;22.67;5.53;;;12.40;99.90;;;;;;5049971;28;20647;-66
2021/12/16 12:29:30;;;;;;;20.40;5.17;;;12.40;99.90;;;;;;5053809;28;20219;-67
2021/12/16 12:32:08;;;;;;;22.87;5.47;;;12.40;99.90;;;;;;5053610;28;20173;-68
2021/12/16 12:34:36;;;;;;;17.37;5.70;;;12.40;99.90;;;;;;5053833;28;20201;-67
2021/12/16 12:37:06;;;;;;;21.50;5.67;;;12.50;99.90;;;;;;5053977;28;20169;-68
2021/12/16 12:39:37;;;;;;;26.97;4.47;;;12.50;99.90;;;;;;5051242;28;20162;-68
2021/12/16 12:42:06;;;;;;;16.50;5.53;;;12.50;99.90;;;;;;5053709;28;20709;-67
2021/12/16 12:44:32;;;;;;;21.90;5.60;;;12.50;99.90;;;;;;5053628;28;20351;-68
2021/12/16 12:47:04;;;;;;;17.45;5.07;;;12.50;99.90;;;;;;5042783;28;20189;-69
2021/12/16 12:49:30;;;;;;;9.53;5.23;;;12.50;99.90;;;;;;5033826;28;20649;-69
2021/12/16 12:52:09;;;;;;;16.30;5.37;;;12.40;99.90;;;;;;5033144;28;20280;-69
2021/12/16 12:54:37;;;;;;;12.27;5.00;;;12.30;99.90;;;;;;5033414;28;20170;-67
2021/12/16 12:57:39;;;;;;;13.47;5.33;;;12.30;99.90;;;;;;5044773;28;20256;-68
2021/12/16 13:00:28;;;;;;;13.83;5.23;;;12.30;99.90;;;;;;5030988;28;20673;-68
2021/12/16 13:03:06;;;;;;;10.73;5.60;;;12.40;99.90;;;;;;5051981;28;20650;-67
2021/12/16 13:05:34;;;;;;;10.20;5.60;;;12.40;99.90;;;;;;5052484;28;20162;-69
2021/12/16 13:08:04;;;;;;;14.37;5.17;;;12.40;99.90;;;;;;5041255;28;20181;-68
2021/12/16 13:10:44;;;;;;;14.77;5.97;;;12.40;99.90;;;;;;5036487;28;20166;-67
2021/12/16 13:13:34;;;;;;;12.93;4.83;;;12.50;99.90;;;;;;5052889;28;20184;-68
2021/12/16 13:16:24;;;;;;;9.40;5.20;;;12.50;99.90;;;;;;5052741;28;20260;-68
2021/12/16 13:27:44;;;;;;;10.27;5.53;;;12.40;99.90;;;;;;5049980;28;20173;-68
2021/12/16 13:33:23;;;;;;;10.13;5.60;;;12.40;99.90;;;;;;5032685;28;20166;-67
2021/12/16 13:36:01;;;;;;;10.77;5.17;;;12.50;99.90;;;;;;5051923;28;20306;-68
2021/12/16 13:38:42;;;;;;;10.33;5.80;;;13.00;99.90;;;;;;5051972;28;20211;-67
2021/12/16 13:41:30;;;;;;;12.50;5.27;;;12.50;99.90;;;;;;5049330;28;20340;-68
2021/12/16 13:44:10;;;;;;;12.27;5.07;;;12.50;99.90;;;;;;5034366;28;20209;-68
2021/12/16 13:47:07;;;;;;;9.50;5.47;;;12.50;99.90;;;;;;5052098;28;20260;-69
2021/12/16 14:01:28;;;;;;;11.10;5.37;;;12.30;99.90;;;;;;5052017;28;20243;-67
2021/12/16 14:04:13;;;;;;;13.13;6.03;;;12.20;99.90;;;;;;5031380;28;20243;-67
2021/12/16 14:06:56;;;;;;;17.17;5.50;;;12.20;99.90;;;;;;5047130;28;20731;-68
2021/12/16 14:09:30;;;;;;;9.73;5.40;;;12.20;99.90;;;;;;5040536;28;20201;-68
2021/12/16 14:15:08;;;;;;;10.23;5.77;;;12.20;99.90;;;;;;5042975;28;20185;-68
2021/12/16 14:23:33;;;;;;;9.00;5.33;;;12.10;99.90;;;;;;5049631;28;20278;-69
2021/12/16 14:26:18;;;;;;;11.53;5.90;;;12.10;99.90;;;;;;5050879;28;20177;-79
2021/12/16 14:37:12;;;;;;;12.57;5.80;;;12.00;99.90;;;;;;5051784;28;20623;-77
2021/12/16 14:50:24;;;;;;;11.60;6.07;;;12.00;99.90;;;;;;5046160;28;20177;-69
2021/12/16 14:52:50;;;;;;;8.30;5.83;;;12.00;99.90;;;;;;5031091;28;20191;-70
2021/12/16 14:55:18;;;;;;;8.80;5.93;;;12.00;99.90;;;;;;5031138;28;20257;-68
2021/12/16 14:57:49;;;;;;;9.43;5.47;;;11.90;99.90;;;;;;5030994;28;20471;-68
2021/12/16 15:00:28;;;;;;;12.83;6.50;;;11.90;99.90;;;;;;5030948;28;20177;-68
2021/12/16 15:03:03;;;;;;;13.33;6.50;;;11.80;99.90;;;;;;5039458;28;20204;-68
2021/12/16 15:05:39;;;;;;;7.93;6.10;;;11.80;99.90;;;;;;5051077;28;20315;-68
2021/12/16 15:08:22;;;;;;;10.97;6.47;;;11.80;99.90;;;;;;5050912;28;20206;-68
2021/12/16 15:10:48;;;;;;;9.90;6.47;;;11.80;99.90;;;;;;5045300;28;20649;-68
2021/12/16 15:13:31;;;;;;;14.13;6.20;;;11.80;99.90;;;;;;5045510;28;20641;-68
2021/12/16 15:16:27;;;;;;;10.50;6.93;;;11.70;99.90;;;;;;5040656;28;20192;-67
2021/12/16 15:39:41;;;;;;;11.77;7.07;;;11.70;99.90;;;;;;5042959;28;20185;-68
2021/12/16 15:45:15;;;;;;;10.90;6.43;;;11.60;99.90;;;;;;5047208;28;20675;-69
2021/12/16 15:47:47;;;;;;;10.23;6.30;;;11.60;99.90;;;;;;5030701;28;20184;-68
2021/12/16 15:50:18;;;;;;;16.47;6.73;;;11.60;99.90;;;;;;5035699;28;20170;-68
2021/12/16 15:52:48;;;;;;;10.30;6.07;;;11.60;99.90;;;;;;5032168;28;20196;-68
2021/12/16 15:55:25;;;;;;;12.57;5.83;;;11.50;99.90;;;;;;5043083;28;20165;-68
2021/12/16 15:57:51;;;;;;;11.30;6.07;;;11.50;99.90;;;;;;5054552;28;20597;-68
2021/12/16 16:00:21;;;;;;;10.07;5.90;;;11.50;99.90;;;;;;5053905;28;20624;-68
2021/12/16 16:02:47;;;;;;;12.87;6.23;;;11.50;99.90;;;;;;5068528;28;20565;-68
2021/12/16 16:05:14;;;;;;;9.97;5.80;;;11.50;99.90;;;;;;5064230;28;20665;-70
2021/12/16 16:07:42;;;;;;;11.40;6.67;;;11.40;99.90;;;;;;5054400;28;20181;-70
2021/12/16 16:10:13;;;;;;;10.33;6.17;;;11.40;99.90;;;;;;5040728;28;20204;-69
2021/12/16 16:12:38;;;;;;;14.10;6.37;;;11.40;99.90;;;;;;5039227;28;20191;-70
2021/12/16 16:15:30;;;;;;;11.33;6.40;;;11.40;99.90;;;;;;5034099;28;20644;-70
2021/12/16 16:18:11;;;;;;;12.10;6.73;;;11.40;99.90;;;;;;5032462;28;20229;-70
2021/12/16 16:20:38;;;;;;;10.93;6.23;;;11.40;99.90;;;;;;5033027;28;20217;-70
2021/12/16 16:23:10;;;;;;;11.70;7.00;;;11.40;99.90;;;;;;5033608;28;20256;-70
2021/12/16 16:25:37;;;;;;;12.00;6.77;;;11.40;99.90;;;;;;5036681;28;20174;-70
2021/12/16 16:28:06;;;;;;;11.57;7.03;;;11.40;99.90;;;;;;5053660;28;20273;-70
2021/12/16 16:30:32;;;;;;;14.50;7.57;;;11.40;99.90;;;;;;5053648;28;20205;-69
2021/12/16 16:33:01;;;;;;;14.33;7.10;;;11.30;99.90;;;;;;5053617;28;20636;-68
2021/12/16 16:35:28;;;;;;;18.10;7.60;;;11.30;99.90;;;;;;5053316;28;20655;-72
2021/12/16 16:38:07;;;;;;;11.67;6.80;;;11.40;99.90;;;;;;5053374;28;20204;-72
2021/12/16 16:40:37;;;;;;;11.33;7.37;;;11.30;99.90;;;;;;5035279;28;20165;-74
2021/12/16 16:43:21;;;;;;;13.17;7.10;;;11.30;99.90;;;;;;5033519;28;20536;-72
2021/12/16 16:45:53;;;;;;;15.40;6.97;;;11.30;99.90;;;;;;5033518;28;20170;-73
2021/12/16 16:48:41;;;;;;;10.90;6.57;;;11.30;99.90;;;;;;5035071;28;20589;-74
2021/12/16 16:51:11;;;;;;;12.00;6.57;;;11.30;99.90;;;;;;5038871;28;20193;-74
2021/12/16 16:54:03;;;;;;;12.53;6.63;;;11.30;99.90;;;;;;5053538;28;20281;-74
2021/12/16 16:56:45;;;;;;;12.10;6.23;;;11.20;99.90;;;;;;5040066;28;20174;-72
2021/12/16 16:59:16;;;;;;;12.43;6.77;;;11.20;99.90;;;;;;5033603;28;20170;-75